Boeing 737-8AS from Ryanair at Eindhoven.
 Regi:EI-DPK  LARGER
 MSN Year:33610 2007
 Date of picture:2007-08-30 13:44
 Flight: ARR CIA FR9615 Rome Italy
 Logs: CIA Rome FR 9615 Ryanair 1:50 PM 1:41 PM Landed 738
 Metar 30/08/2007 13:25 METAR EHEH 301325Z 25011KT 9999 FEW026 BKN045 19/12 Q1019 BLU BLU=
 Hits: 379 ID: 127

Debriefing: Photographed movements of Airports in NW-Europe.
The images of our site attendant is in authorisation from Queen of Sky.
Copying of images of this site have been prohibited in which manner without the authorisation of the photographer.
In behalf of the crew :"Thank you visiting us" - Contact
Factsheets Boeing, 737-8AS, Ryanair, made by De Plane! © 2006 - 2022 All rights reserved


.